sensor_id;sensor_type;location;lat;lon;timestamp;temperature;humidity
25058;DHT22;13057;50.978;11.034;2022-08-04T00:00:05;23.40;73.50
25058;DHT22;13057;50.978;11.034;2022-08-04T00:02:49;23.30;73.50
25058;DHT22;13057;50.978;11.034;2022-08-04T00:05:35;23.30;73.60
25058;DHT22;13057;50.978;11.034;2022-08-04T00:08:21;23.30;73.60
25058;DHT22;13057;50.978;11.034;2022-08-04T00:10:49;23.30;73.80
25058;DHT22;13057;50.978;11.034;2022-08-04T00:13:23;23.30;73.80
25058;DHT22;13057;50.978;11.034;2022-08-04T00:15:53;23.20;74.00
25058;DHT22;13057;50.978;11.034;2022-08-04T00:18:26;23.20;74.10
25058;DHT22;13057;50.978;11.034;2022-08-04T00:20:56;23.20;74.10
25058;DHT22;13057;50.978;11.034;2022-08-04T00:23:25;23.20;74.40
25058;DHT22;13057;50.978;11.034;2022-08-04T00:25:52;23.20;74.20
25058;DHT22;13057;50.978;11.034;2022-08-04T00:28:20;23.10;74.40
25058;DHT22;13057;50.978;11.034;2022-08-04T00:30:46;23.10;74.50
25058;DHT22;13057;50.978;11.034;2022-08-04T00:33:17;23.10;74.50
25058;DHT22;13057;50.978;11.034;2022-08-04T00:35:46;23.00;75.00
25058;DHT22;13057;50.978;11.034;2022-08-04T00:38:15;23.10;75.10
25058;DHT22;13057;50.978;11.034;2022-08-04T00:40:56;23.00;74.70
25058;DHT22;13057;50.978;11.034;2022-08-04T00:43:31;23.00;74.70
25058;DHT22;13057;50.978;11.034;2022-08-04T00:46:34;23.00;74.90
25058;DHT22;13057;50.978;11.034;2022-08-04T00:49:29;22.90;74.90
25058;DHT22;13057;50.978;11.034;2022-08-04T00:52:17;22.90;75.00
25058;DHT22;13057;50.978;11.034;2022-08-04T00:58:11;22.90;75.30
25058;DHT22;13057;50.978;11.034;2022-08-04T01:01:00;22.90;75.10
25058;DHT22;13057;50.978;11.034;2022-08-04T01:03:38;22.80;75.20
25058;DHT22;13057;50.978;11.034;2022-08-04T01:09:17;22.70;75.60
25058;DHT22;13057;50.978;11.034;2022-08-04T01:12:07;22.70;76.10
25058;DHT22;13057;50.978;11.034;2022-08-04T01:14:58;22.70;76.20
25058;DHT22;13057;50.978;11.034;2022-08-04T01:20:20;22.60;76.50
25058;DHT22;13057;50.978;11.034;2022-08-04T01:23:20;22.50;76.80
25058;DHT22;13057;50.978;11.034;2022-08-04T01:26:12;22.50;76.90
25058;DHT22;13057;50.978;11.034;2022-08-04T01:29:00;22.50;77.00
25058;DHT22;13057;50.978;11.034;2022-08-04T01:31:49;22.40;77.10
25058;DHT22;13057;50.978;11.034;2022-08-04T01:34:19;22.40;77.50
25058;DHT22;13057;50.978;11.034;2022-08-04T01:36:56;22.40;77.10
25058;DHT22;13057;50.978;11.034;2022-08-04T01:39:32;22.40;77.00
25058;DHT22;13057;50.978;11.034;2022-08-04T01:42:06;22.40;77.00
25058;DHT22;13057;50.978;11.034;2022-08-04T01:44:32;22.30;77.00
25058;DHT22;13057;50.978;11.034;2022-08-04T01:47:00;22.30;77.20
25058;DHT22;13057;50.978;11.034;2022-08-04T01:49:29;22.30;77.40
25058;DHT22;13057;50.978;11.034;2022-08-04T01:51:56;22.30;77.10
25058;DHT22;13057;50.978;11.034;2022-08-04T01:54:23;22.20;77.40
25058;DHT22;13057;50.978;11.034;2022-08-04T01:56:50;22.20;77.40
25058;DHT22;13057;50.978;11.034;2022-08-04T01:59:18;22.20;77.40
25058;DHT22;13057;50.978;11.034;2022-08-04T02:01:45;22.20;77.40
25058;DHT22;13057;50.978;11.034;2022-08-04T02:04:15;22.10;77.60
25058;DHT22;13057;50.978;11.034;2022-08-04T02:06:59;22.10;77.60
25058;DHT22;13057;50.978;11.034;2022-08-04T02:09:42;22.10;77.70
25058;DHT22;13057;50.978;11.034;2022-08-04T02:12:23;22.00;77.90
25058;DHT22;13057;50.978;11.034;2022-08-04T02:15:02;22.00;77.90
25058;DHT22;13057;50.978;11.034;2022-08-04T02:17:35;21.90;77.90
25058;DHT22;13057;50.978;11.034;2022-08-04T02:20:08;21.90;78.10
25058;DHT22;13057;50.978;11.034;2022-08-04T02:22:42;21.90;78.20
25058;DHT22;13057;50.978;11.034;2022-08-04T02:25:11;21.90;78.40
25058;DHT22;13057;50.978;11.034;2022-08-04T02:27:53;21.90;78.60
25058;DHT22;13057;50.978;11.034;2022-08-04T02:30:20;21.90;78.50
25058;DHT22;13057;50.978;11.034;2022-08-04T02:32:48;21.80;78.50
25058;DHT22;13057;50.978;11.034;2022-08-04T02:35:25;21.80;78.60
25058;DHT22;13057;50.978;11.034;2022-08-04T02:38:02;21.80;78.60
25058;DHT22;13057;50.978;11.034;2022-08-04T02:40:29;21.80;78.50
25058;DHT22;13057;50.978;11.034;2022-08-04T02:42:57;21.80;78.80
25058;DHT22;13057;50.978;11.034;2022-08-04T02:45:24;21.80;78.60
25058;DHT22;13057;50.978;11.034;2022-08-04T02:47:53;21.80;78.60
25058;DHT22;13057;50.978;11.034;2022-08-04T02:50:20;21.70;78.70
25058;DHT22;13057;50.978;11.034;2022-08-04T02:52:48;21.70;78.80
25058;DHT22;13057;50.978;11.034;2022-08-04T02:55:16;21.60;78.80
25058;DHT22;13057;50.978;11.034;2022-08-04T02:57:44;21.60;79.40
25058;DHT22;13057;50.978;11.034;2022-08-04T03:00:12;21.60;79.80
25058;DHT22;13057;50.978;11.034;2022-08-04T03:02:49;21.60;79.80
25058;DHT22;13057;50.978;11.034;2022-08-04T03:05:24;21.50;80.10
25058;DHT22;13057;50.978;11.034;2022-08-04T03:08:08;21.50;80.40
25058;DHT22;13057;50.978;11.034;2022-08-04T03:10:59;21.50;80.80
25058;DHT22;13057;50.978;11.034;2022-08-04T03:13:44;21.50;81.70
25058;DHT22;13057;50.978;11.034;2022-08-04T03:19:42;21.50;82.50
25058;DHT22;13057;50.978;11.034;2022-08-04T03:22:37;21.40;82.50
25058;DHT22;13057;50.978;11.034;2022-08-04T03:25:13;21.40;81.70
25058;DHT22;13057;50.978;11.034;2022-08-04T03:28:07;21.40;81.30
25058;DHT22;13057;50.978;11.034;2022-08-04T03:30:58;21.40;80.80
25058;DHT22;13057;50.978;11.034;2022-08-04T03:33:54;21.40;80.90
25058;DHT22;13057;50.978;11.034;2022-08-04T03:39:46;21.30;80.90
25058;DHT22;13057;50.978;11.034;2022-08-04T03:42:33;21.30;80.90
25058;DHT22;13057;50.978;11.034;2022-08-04T03:48:20;21.30;80.70
25058;DHT22;13057;50.978;11.034;2022-08-04T03:54:08;21.30;80.70
25058;DHT22;13057;50.978;11.034;2022-08-04T03:56:57;21.20;80.70
25058;DHT22;13057;50.978;11.034;2022-08-04T03:59:54;21.20;81.00
25058;DHT22;13057;50.978;11.034;2022-08-04T04:02:44;21.20;81.20
25058;DHT22;13057;50.978;11.034;2022-08-04T04:05:37;21.20;80.80
25058;DHT22;13057;50.978;11.034;2022-08-04T04:08:28;21.20;80.70
25058;DHT22;13057;50.978;11.034;2022-08-04T04:11:20;21.20;81.00
25058;DHT22;13057;50.978;11.034;2022-08-04T04:14:10;21.20;81.10
25058;DHT22;13057;50.978;11.034;2022-08-04T04:16:52;21.20;81.20
25058;DHT22;13057;50.978;11.034;2022-08-04T04:19:35;21.20;81.20
25058;DHT22;13057;50.978;11.034;2022-08-04T04:22:16;21.20;81.20
25058;DHT22;13057;50.978;11.034;2022-08-04T04:24:58;21.10;81.30
25058;DHT22;13057;50.978;11.034;2022-08-04T04:27:51;21.20;81.30
25058;DHT22;13057;50.978;11.034;2022-08-04T04:30:41;21.40;81.00
25058;DHT22;13057;50.978;11.034;2022-08-04T04:33:36;21.30;80.80
25058;DHT22;13057;50.978;11.034;2022-08-04T04:36:16;21.30;81.10
25058;DHT22;13057;50.978;11.034;2022-08-04T04:39:00;21.30;81.20
25058;DHT22;13057;50.978;11.034;2022-08-04T04:41:44;21.30;81.10
25058;DHT22;13057;50.978;11.034;2022-08-04T04:47:36;21.30;81.60
25058;DHT22;13057;50.978;11.034;2022-08-04T04:50:07;21.30;81.30
25058;DHT22;13057;50.978;11.034;2022-08-04T04:52:44;21.30;81.40
25058;DHT22;13057;50.978;11.034;2022-08-04T04:55:20;21.30;81.50
25058;DHT22;13057;50.978;11.034;2022-08-04T04:57:50;21.30;81.60
25058;DHT22;13057;50.978;11.034;2022-08-04T05:00:18;21.40;81.40
25058;DHT22;13057;50.978;11.034;2022-08-04T05:03:15;21.40;81.60
25058;DHT22;13057;50.978;11.034;2022-08-04T05:06:09;21.40;81.20
25058;DHT22;13057;50.978;11.034;2022-08-04T05:09:02;21.40;81.40
25058;DHT22;13057;50.978;11.034;2022-08-04T05:12:03;21.50;81.30
25058;DHT22;13057;50.978;11.034;2022-08-04T05:14:37;21.60;81.00
25058;DHT22;13057;50.978;11.034;2022-08-04T05:17:17;21.60;81.30
25058;DHT22;13057;50.978;11.034;2022-08-04T05:19:58;21.70;81.30
25058;DHT22;13057;50.978;11.034;2022-08-04T05:22:34;21.70;81.30
25058;DHT22;13057;50.978;11.034;2022-08-04T05:25:06;21.70;81.10
25058;DHT22;13057;50.978;11.034;2022-08-04T05:27:34;21.80;81.60
25058;DHT22;13057;50.978;11.034;2022-08-04T05:30:04;21.80;81.40
25058;DHT22;13057;50.978;11.034;2022-08-04T05:32:37;21.80;81.70
25058;DHT22;13057;50.978;11.034;2022-08-04T05:35:09;21.90;81.70
25058;DHT22;13057;50.978;11.034;2022-08-04T05:37:37;21.90;81.90
25058;DHT22;13057;50.978;11.034;2022-08-04T05:40:06;22.20;82.00
25058;DHT22;13057;50.978;11.034;2022-08-04T05:42:36;22.70;81.30
25058;DHT22;13057;50.978;11.034;2022-08-04T05:45:03;23.50;79.40
25058;DHT22;13057;50.978;11.034;2022-08-04T05:47:31;24.20;77.60
25058;DHT22;13057;50.978;11.034;2022-08-04T05:49:59;24.90;75.60
25058;DHT22;13057;50.978;11.034;2022-08-04T05:52:27;25.20;74.30
25058;DHT22;13057;50.978;11.034;2022-08-04T05:54:54;25.60;73.60
25058;DHT22;13057;50.978;11.034;2022-08-04T05:57:21;25.70;72.60
25058;DHT22;13057;50.978;11.034;2022-08-04T05:59:48;25.70;72.80
25058;DHT22;13057;50.978;11.034;2022-08-04T06:02:17;25.90;72.50
25058;DHT22;13057;50.978;11.034;2022-08-04T06:04:48;26.10;71.30
25058;DHT22;13057;50.978;11.034;2022-08-04T06:07:14;25.70;71.10
25058;DHT22;13057;50.978;11.034;2022-08-04T06:09:40;25.30;72.00
25058;DHT22;13057;50.978;11.034;2022-08-04T06:12:10;24.90;73.00
25058;DHT22;13057;50.978;11.034;2022-08-04T06:14:41;24.70;73.90
25058;DHT22;13057;50.978;11.034;2022-08-04T06:17:10;24.50;74.50
25058;DHT22;13057;50.978;11.034;2022-08-04T06:19:39;24.50;75.00
25058;DHT22;13057;50.978;11.034;2022-08-04T06:22:07;24.40;75.10
25058;DHT22;13057;50.978;11.034;2022-08-04T06:24:35;24.40;75.00
25058;DHT22;13057;50.978;11.034;2022-08-04T06:27:03;24.40;75.50
25058;DHT22;13057;50.978;11.034;2022-08-04T06:29:30;24.40;75.30
25058;DHT22;13057;50.978;11.034;2022-08-04T06:32:04;24.40;74.80
25058;DHT22;13057;50.978;11.034;2022-08-04T06:34:39;24.40;75.00
25058;DHT22;13057;50.978;11.034;2022-08-04T06:37:07;24.50;75.40
25058;DHT22;13057;50.978;11.034;2022-08-04T06:39:34;24.50;75.00
25058;DHT22;13057;50.978;11.034;2022-08-04T06:42:02;24.60;74.70
25058;DHT22;13057;50.978;11.034;2022-08-04T06:44:29;24.60;74.90
25058;DHT22;13057;50.978;11.034;2022-08-04T06:46:55;24.70;75.10
25058;DHT22;13057;50.978;11.034;2022-08-04T06:49:23;24.70;74.80
25058;DHT22;13057;50.978;11.034;2022-08-04T06:51:51;24.80;75.00
25058;DHT22;13057;50.978;11.034;2022-08-04T06:54:18;24.80;75.20
25058;DHT22;13057;50.978;11.034;2022-08-04T06:56:44;24.90;75.50
25058;DHT22;13057;50.978;11.034;2022-08-04T06:59:11;24.90;75.40
25058;DHT22;13057;50.978;11.034;2022-08-04T07:01:39;25.00;74.60
25058;DHT22;13057;50.978;11.034;2022-08-04T07:04:06;25.00;74.80
25058;DHT22;13057;50.978;11.034;2022-08-04T07:06:32;25.00;74.40
25058;DHT22;13057;50.978;11.034;2022-08-04T07:08:58;25.10;74.60
25058;DHT22;13057;50.978;11.034;2022-08-04T07:11:25;25.10;74.40
25058;DHT22;13057;50.978;11.034;2022-08-04T07:13:52;25.20;74.90
25058;DHT22;13057;50.978;11.034;2022-08-04T07:16:20;25.30;75.10
25058;DHT22;13057;50.978;11.034;2022-08-04T07:18:47;25.30;74.90
25058;DHT22;13057;50.978;11.034;2022-08-04T07:21:21;25.40;74.40
25058;DHT22;13057;50.978;11.034;2022-08-04T07:23:48;25.40;75.00
25058;DHT22;13057;50.978;11.034;2022-08-04T07:26:14;25.50;74.80
25058;DHT22;13057;50.978;11.034;2022-08-04T07:28:41;25.50;74.40
25058;DHT22;13057;50.978;11.034;2022-08-04T07:31:10;25.60;74.30
25058;DHT22;13057;50.978;11.034;2022-08-04T07:33:40;25.70;74.30
25058;DHT22;13057;50.978;11.034;2022-08-04T07:36:07;25.80;74.50
25058;DHT22;13057;50.978;11.034;2022-08-04T07:38:33;25.90;74.10
25058;DHT22;13057;50.978;11.034;2022-08-04T07:40:59;25.90;74.00
25058;DHT22;13057;50.978;11.034;2022-08-04T07:43:25;26.00;73.90
25058;DHT22;13057;50.978;11.034;2022-08-04T07:45:52;26.10;73.60
25058;DHT22;13057;50.978;11.034;2022-08-04T07:48:18;26.10;73.60
25058;DHT22;13057;50.978;11.034;2022-08-04T07:50:47;26.20;73.50
25058;DHT22;13057;50.978;11.034;2022-08-04T07:53:14;26.30;73.70
25058;DHT22;13057;50.978;11.034;2022-08-04T07:55:39;26.40;72.80
25058;DHT22;13057;50.978;11.034;2022-08-04T07:58:05;26.50;72.90
25058;DHT22;13057;50.978;11.034;2022-08-04T08:00:31;26.70;72.90
25058;DHT22;13057;50.978;11.034;2022-08-04T08:02:58;26.70;72.70
25058;DHT22;13057;50.978;11.034;2022-08-04T08:05:24;26.80;72.70
25058;DHT22;13057;50.978;11.034;2022-08-04T08:07:51;26.90;71.90
25058;DHT22;13057;50.978;11.034;2022-08-04T08:10:17;27.00;71.80
25058;DHT22;13057;50.978;11.034;2022-08-04T08:12:44;27.00;72.00
25058;DHT22;13057;50.978;11.034;2022-08-04T08:15:11;27.10;72.10
25058;DHT22;13057;50.978;11.034;2022-08-04T08:17:37;27.10;71.70
25058;DHT22;13057;50.978;11.034;2022-08-04T08:20:05;27.20;71.90
25058;DHT22;13057;50.978;11.034;2022-08-04T08:22:31;27.20;71.20
25058;DHT22;13057;50.978;11.034;2022-08-04T08:24:58;27.30;71.50
25058;DHT22;13057;50.978;11.034;2022-08-04T08:27:25;27.40;71.40
25058;DHT22;13057;50.978;11.034;2022-08-04T08:29:51;27.40;71.50
25058;DHT22;13057;50.978;11.034;2022-08-04T08:32:17;27.50;71.10
25058;DHT22;13057;50.978;11.034;2022-08-04T08:34:43;27.60;71.10
25058;DHT22;13057;50.978;11.034;2022-08-04T08:37:25;27.60;70.50
25058;DHT22;13057;50.978;11.034;2022-08-04T08:39:58;27.70;70.40
25058;DHT22;13057;50.978;11.034;2022-08-04T08:42:59;27.70;70.90
25058;DHT22;13057;50.978;11.034;2022-08-04T08:45:50;27.80;71.00
25058;DHT22;13057;50.978;11.034;2022-08-04T08:48:40;27.80;70.60
25058;DHT22;13057;50.978;11.034;2022-08-04T08:51:25;27.80;70.50
25058;DHT22;13057;50.978;11.034;2022-08-04T08:54:07;27.90;71.30
25058;DHT22;13057;50.978;11.034;2022-08-04T08:56:49;27.80;71.50
25058;DHT22;13057;50.978;11.034;2022-08-04T08:59:46;27.90;70.70
25058;DHT22;13057;50.978;11.034;2022-08-04T09:02:33;27.90;69.30
25058;DHT22;13057;50.978;11.034;2022-08-04T09:05:23;28.00;68.80
25058;DHT22;13057;50.978;11.034;2022-08-04T09:08:11;28.10;69.70
25058;DHT22;13057;50.978;11.034;2022-08-04T09:10:48;28.20;69.30
25058;DHT22;13057;50.978;11.034;2022-08-04T09:13:21;28.20;69.50
25058;DHT22;13057;50.978;11.034;2022-08-04T09:16:06;28.20;70.60
25058;DHT22;13057;50.978;11.034;2022-08-04T09:18:46;28.20;70.60
25058;DHT22;13057;50.978;11.034;2022-08-04T09:21:25;28.30;70.00
25058;DHT22;13057;50.978;11.034;2022-08-04T09:24:08;28.50;69.10
25058;DHT22;13057;50.978;11.034;2022-08-04T09:26:43;28.40;69.80
25058;DHT22;13057;50.978;11.034;2022-08-04T09:29:20;28.40;69.00
25058;DHT22;13057;50.978;11.034;2022-08-04T09:32:03;28.40;69.70
25058;DHT22;13057;50.978;11.034;2022-08-04T09:34:38;28.20;70.10
25058;DHT22;13057;50.978;11.034;2022-08-04T09:37:23;28.20;70.60
25058;DHT22;13057;50.978;11.034;2022-08-04T09:40:02;28.20;68.40
25058;DHT22;13057;50.978;11.034;2022-08-04T09:42:46;28.30;69.70
25058;DHT22;13057;50.978;11.034;2022-08-04T09:45:35;28.50;66.30
25058;DHT22;13057;50.978;11.034;2022-08-04T09:48:09;28.60;69.30
25058;DHT22;13057;50.978;11.034;2022-08-04T09:50:38;28.70;69.00
25058;DHT22;13057;50.978;11.034;2022-08-04T09:53:28;28.60;69.50
25058;DHT22;13057;50.978;11.034;2022-08-04T09:56:08;28.60;69.70
25058;DHT22;13057;50.978;11.034;2022-08-04T09:58:57;28.60;69.60
25058;DHT22;13057;50.978;11.034;2022-08-04T10:01:28;28.60;69.70
25058;DHT22;13057;50.978;11.034;2022-08-04T10:03:59;28.60;69.60
25058;DHT22;13057;50.978;11.034;2022-08-04T10:06:47;28.70;69.40
25058;DHT22;13057;50.978;11.034;2022-08-04T10:09:33;28.70;69.40
25058;DHT22;13057;50.978;11.034;2022-08-04T10:15:20;28.90;69.50
25058;DHT22;13057;50.978;11.034;2022-08-04T10:18:10;28.90;69.80
25058;DHT22;13057;50.978;11.034;2022-08-04T10:20:50;29.00;69.10
25058;DHT22;13057;50.978;11.034;2022-08-04T10:23:32;29.00;69.10
25058;DHT22;13057;50.978;11.034;2022-08-04T10:26:16;29.20;68.30
25058;DHT22;13057;50.978;11.034;2022-08-04T10:31:32;29.10;68.70
25058;DHT22;13057;50.978;11.034;2022-08-04T10:34:05;29.10;68.70
25058;DHT22;13057;50.978;11.034;2022-08-04T10:36:43;29.10;68.50
25058;DHT22;13057;50.978;11.034;2022-08-04T10:39:19;29.20;68.60
25058;DHT22;13057;50.978;11.034;2022-08-04T10:42:08;29.20;68.50
25058;DHT22;13057;50.978;11.034;2022-08-04T10:45:03;29.30;67.90
25058;DHT22;13057;50.978;11.034;2022-08-04T10:47:36;29.50;68.00
25058;DHT22;13057;50.978;11.034;2022-08-04T10:50:03;29.70;67.40
25058;DHT22;13057;50.978;11.034;2022-08-04T10:52:34;29.70;67.30
25058;DHT22;13057;50.978;11.034;2022-08-04T10:55:12;29.70;67.60
25058;DHT22;13057;50.978;11.034;2022-08-04T10:57:49;29.70;66.90
25058;DHT22;13057;50.978;11.034;2022-08-04T11:00:27;29.70;67.10
25058;DHT22;13057;50.978;11.034;2022-08-04T11:03:07;29.60;67.10
25058;DHT22;13057;50.978;11.034;2022-08-04T11:05:48;29.50;67.60
25058;DHT22;13057;50.978;11.034;2022-08-04T11:08:24;29.60;67.60
25058;DHT22;13057;50.978;11.034;2022-08-04T11:11:00;29.60;67.50
25058;DHT22;13057;50.978;11.034;2022-08-04T11:13:37;29.50;67.30
25058;DHT22;13057;50.978;11.034;2022-08-04T11:16:12;29.50;67.50
25058;DHT22;13057;50.978;11.034;2022-08-04T11:19:00;29.60;67.60
25058;DHT22;13057;50.978;11.034;2022-08-04T11:21:33;29.60;67.50
25058;DHT22;13057;50.978;11.034;2022-08-04T11:24:04;29.60;67.30
25058;DHT22;13057;50.978;11.034;2022-08-04T11:26:47;29.60;67.10
25058;DHT22;13057;50.978;11.034;2022-08-04T11:29:21;29.70;67.30
25058;DHT22;13057;50.978;11.034;2022-08-04T11:31:49;29.70;66.90
25058;DHT22;13057;50.978;11.034;2022-08-04T11:34:20;29.70;66.90
25058;DHT22;13057;50.978;11.034;2022-08-04T11:36:58;29.80;66.30
25058;DHT22;13057;50.978;11.034;2022-08-04T11:39:34;29.80;66.60
25058;DHT22;13057;50.978;11.034;2022-08-04T11:45:00;29.90;66.30
25058;DHT22;13057;50.978;11.034;2022-08-04T11:47:43;30.00;65.90
25058;DHT22;13057;50.978;11.034;2022-08-04T11:53:03;29.90;66.30
25058;DHT22;13057;50.978;11.034;2022-08-04T11:55:32;30.00;62.30
25058;DHT22;13057;50.978;11.034;2022-08-04T11:57:59;30.30;64.50
25058;DHT22;13057;50.978;11.034;2022-08-04T12:00:28;30.30;63.70
25058;DHT22;13057;50.978;11.034;2022-08-04T12:05:47;30.30;64.70
25058;DHT22;13057;50.978;11.034;2022-08-04T12:14:23;30.10;65.20
25058;DHT22;13057;50.978;11.034;2022-08-04T12:16:58;30.20;65.40
25058;DHT22;13057;50.978;11.034;2022-08-04T12:19:34;30.10;65.40
25058;DHT22;13057;50.978;11.034;2022-08-04T12:22:04;30.20;65.10
25058;DHT22;13057;50.978;11.034;2022-08-04T12:24:34;30.20;65.20
25058;DHT22;13057;50.978;11.034;2022-08-04T12:27:10;30.20;66.20
25058;DHT22;13057;50.978;11.034;2022-08-04T12:29:39;30.10;65.20
25058;DHT22;13057;50.978;11.034;2022-08-04T12:32:15;30.20;65.00
25058;DHT22;13057;50.978;11.034;2022-08-04T12:34:58;30.40;64.20
25058;DHT22;13057;50.978;11.034;2022-08-04T12:37:33;30.40;64.40
25058;DHT22;13057;50.978;11.034;2022-08-04T12:40:03;30.20;64.40
25058;DHT22;13057;50.978;11.034;2022-08-04T12:42:45;30.10;64.90
25058;DHT22;13057;50.978;11.034;2022-08-04T12:45:13;30.10;65.20
25058;DHT22;13057;50.978;11.034;2022-08-04T12:47:40;30.10;65.10
25058;DHT22;13057;50.978;11.034;2022-08-04T12:50:08;30.10;65.20
25058;DHT22;13057;50.978;11.034;2022-08-04T12:52:43;29.90;65.30
25058;DHT22;13057;50.978;11.034;2022-08-04T12:55:11;30.00;65.40
25058;DHT22;13057;50.978;11.034;2022-08-04T12:57:39;30.00;65.40
25058;DHT22;13057;50.978;11.034;2022-08-04T13:00:07;30.30;64.40
25058;DHT22;13057;50.978;11.034;2022-08-04T13:02:38;30.60;60.50
25058;DHT22;13057;50.978;11.034;2022-08-04T13:05:07;30.70;63.60
25058;DHT22;13057;50.978;11.034;2022-08-04T13:07:37;30.60;63.40
25058;DHT22;13057;50.978;11.034;2022-08-04T13:10:15;30.50;64.00
25058;DHT22;13057;50.978;11.034;2022-08-04T13:12:50;30.40;63.50
25058;DHT22;13057;50.978;11.034;2022-08-04T13:15:24;30.40;64.30
25058;DHT22;13057;50.978;11.034;2022-08-04T13:17:55;30.30;64.40
25058;DHT22;13057;50.978;11.034;2022-08-04T13:20:25;30.30;64.40
25058;DHT22;13057;50.978;11.034;2022-08-04T13:22:58;30.30;63.70
25058;DHT22;13057;50.978;11.034;2022-08-04T13:25:28;30.30;64.20
25058;DHT22;13057;50.978;11.034;2022-08-04T13:27:55;30.30;64.50
25058;DHT22;13057;50.978;11.034;2022-08-04T13:30:23;30.30;64.50
25058;DHT22;13057;50.978;11.034;2022-08-04T13:32:55;30.30;64.50
25058;DHT22;13057;50.978;11.034;2022-08-04T13:35:24;30.30;64.60
25058;DHT22;13057;50.978;11.034;2022-08-04T13:37:51;30.20;64.50
25058;DHT22;13057;50.978;11.034;2022-08-04T13:40:21;30.20;64.50
25058;DHT22;13057;50.978;11.034;2022-08-04T13:42:50;30.30;64.50
25058;DHT22;13057;50.978;11.034;2022-08-04T13:45:21;30.30;65.40
25058;DHT22;13057;50.978;11.034;2022-08-04T13:47:48;30.20;64.80
25058;DHT22;13057;50.978;11.034;2022-08-04T13:50:22;30.20;64.80
25058;DHT22;13057;50.978;11.034;2022-08-04T13:52:52;30.20;65.00
25058;DHT22;13057;50.978;11.034;2022-08-04T13:55:29;30.20;64.70
25058;DHT22;13057;50.978;11.034;2022-08-04T13:58:05;30.30;64.90
25058;DHT22;13057;50.978;11.034;2022-08-04T14:00:46;30.40;64.90
25058;DHT22;13057;50.978;11.034;2022-08-04T14:03:19;30.30;64.20
25058;DHT22;13057;50.978;11.034;2022-08-04T14:06:05;30.30;64.60
25058;DHT22;13057;50.978;11.034;2022-08-04T14:08:36;30.20;64.90
25058;DHT22;13057;50.978;11.034;2022-08-04T14:11:10;30.20;64.90
25058;DHT22;13057;50.978;11.034;2022-08-04T14:13:36;30.20;65.00
25058;DHT22;13057;50.978;11.034;2022-08-04T14:16:14;30.30;65.10
25058;DHT22;13057;50.978;11.034;2022-08-04T14:18:40;30.30;64.60
25058;DHT22;13057;50.978;11.034;2022-08-04T14:21:11;30.30;64.60
25058;DHT22;13057;50.978;11.034;2022-08-04T14:23:41;30.30;64.60
25058;DHT22;13057;50.978;11.034;2022-08-04T14:26:24;30.30;64.60
25058;DHT22;13057;50.978;11.034;2022-08-04T14:28:52;30.30;64.40
25058;DHT22;13057;50.978;11.034;2022-08-04T14:31:23;30.20;64.40
25058;DHT22;13057;50.978;11.034;2022-08-04T14:33:51;30.30;64.80
25058;DHT22;13057;50.978;11.034;2022-08-04T14:36:18;30.30;64.70
25058;DHT22;13057;50.978;11.034;2022-08-04T14:38:54;30.30;64.70
25058;DHT22;13057;50.978;11.034;2022-08-04T14:41:25;30.40;64.90
25058;DHT22;13057;50.978;11.034;2022-08-04T14:43:55;30.40;64.60
25058;DHT22;13057;50.978;11.034;2022-08-04T14:46:23;30.40;64.40
25058;DHT22;13057;50.978;11.034;2022-08-04T14:49:01;30.30;64.30
25058;DHT22;13057;50.978;11.034;2022-08-04T14:51:35;30.30;64.60
25058;DHT22;13057;50.978;11.034;2022-08-04T14:54:01;30.30;64.60
25058;DHT22;13057;50.978;11.034;2022-08-04T14:56:27;30.30;64.30
25058;DHT22;13057;50.978;11.034;2022-08-04T14:59:01;30.20;64.80
25058;DHT22;13057;50.978;11.034;2022-08-04T15:01:28;30.10;64.90
25058;DHT22;13057;50.978;11.034;2022-08-04T15:03:56;29.90;64.80
25058;DHT22;13057;50.978;11.034;2022-08-04T15:06:24;29.90;65.10
25058;DHT22;13057;50.978;11.034;2022-08-04T15:08:52;29.90;65.20
25058;DHT22;13057;50.978;11.034;2022-08-04T15:11:19;29.80;65.30
25058;DHT22;13057;50.978;11.034;2022-08-04T15:13:46;29.80;65.50
25058;DHT22;13057;50.978;11.034;2022-08-04T15:16:13;29.80;65.50
25058;DHT22;13057;50.978;11.034;2022-08-04T15:18:40;29.80;65.60
25058;DHT22;13057;50.978;11.034;2022-08-04T15:21:07;29.70;65.70
25058;DHT22;13057;50.978;11.034;2022-08-04T15:23:35;29.70;65.70
25058;DHT22;13057;50.978;11.034;2022-08-04T15:26:03;29.70;65.80
25058;DHT22;13057;50.978;11.034;2022-08-04T15:28:32;29.70;65.90
25058;DHT22;13057;50.978;11.034;2022-08-04T15:31:03;29.70;66.10
25058;DHT22;13057;50.978;11.034;2022-08-04T15:33:31;29.70;66.10
25058;DHT22;13057;50.978;11.034;2022-08-04T15:36:15;29.60;66.00
25058;DHT22;13057;50.978;11.034;2022-08-04T15:39:02;29.60;66.00
25058;DHT22;13057;50.978;11.034;2022-08-04T15:41:46;29.60;66.10
25058;DHT22;13057;50.978;11.034;2022-08-04T15:47:14;29.70;66.10
25058;DHT22;13057;50.978;11.034;2022-08-04T15:49:41;29.60;66.10
25058;DHT22;13057;50.978;11.034;2022-08-04T15:52:10;29.60;66.20
25058;DHT22;13057;50.978;11.034;2022-08-04T15:54:37;29.60;66.30
25058;DHT22;13057;50.978;11.034;2022-08-04T15:57:04;29.60;66.40
25058;DHT22;13057;50.978;11.034;2022-08-04T16:02:35;29.60;66.40
25058;DHT22;13057;50.978;11.034;2022-08-04T16:05:28;29.60;66.50
25058;DHT22;13057;50.978;11.034;2022-08-04T16:07:56;29.60;66.40
25058;DHT22;13057;50.978;11.034;2022-08-04T16:10:39;29.60;66.60
25058;DHT22;13057;50.978;11.034;2022-08-04T16:13:09;29.60;66.60
25058;DHT22;13057;50.978;11.034;2022-08-04T16:15:42;29.60;66.50
25058;DHT22;13057;50.978;11.034;2022-08-04T16:18:09;29.70;66.50
25058;DHT22;13057;50.978;11.034;2022-08-04T16:20:36;29.60;66.60
25058;DHT22;13057;50.978;11.034;2022-08-04T16:26:01;29.60;66.70
25058;DHT22;13057;50.978;11.034;2022-08-04T16:28:41;29.60;66.70
25058;DHT22;13057;50.978;11.034;2022-08-04T16:31:10;29.60;66.90
25058;DHT22;13057;50.978;11.034;2022-08-04T16:33:37;29.50;66.80
25058;DHT22;13057;50.978;11.034;2022-08-04T16:36:06;29.50;66.80
25058;DHT22;13057;50.978;11.034;2022-08-04T16:38:59;29.60;66.80
25058;DHT22;13057;50.978;11.034;2022-08-04T16:41:38;29.50;66.70
25058;DHT22;13057;50.978;11.034;2022-08-04T16:44:31;29.50;66.80
25058;DHT22;13057;50.978;11.034;2022-08-04T16:46:59;29.50;66.80
25058;DHT22;13057;50.978;11.034;2022-08-04T16:49:26;29.50;66.80
25058;DHT22;13057;50.978;11.034;2022-08-04T16:51:54;29.50;66.70
25058;DHT22;13057;50.978;11.034;2022-08-04T16:54:21;29.60;66.90